createdAt,value
2022-07-25T00:02:33.263Z,72.29
2022-07-25T00:05:07.700Z,72.51
2022-07-25T00:07:40.515Z,72.65
2022-07-25T00:10:13.285Z,72.45
2022-07-25T00:12:46.005Z,72.60
2022-07-25T00:15:18.582Z,72.49
2022-07-25T00:17:52.507Z,72.61
2022-07-25T00:20:25.305Z,72.63
2022-07-25T00:22:57.767Z,72.88
2022-07-25T00:25:30.437Z,72.75
2022-07-25T00:28:02.858Z,72.73
2022-07-25T00:30:35.597Z,72.89
2022-07-25T00:33:09.599Z,72.76
2022-07-25T00:35:42.280Z,72.83
2022-07-25T00:38:14.753Z,72.55
2022-07-25T00:40:54.667Z,72.81
2022-07-25T00:43:28.448Z,73.00
2022-07-25T00:46:01.067Z,72.83
2022-07-25T00:48:35.706Z,72.67
2022-07-25T00:51:08.777Z,72.90
2022-07-25T00:53:42.452Z,73.05
2022-07-25T00:56:16.115Z,72.86
2022-07-25T00:58:48.649Z,73.04
2022-07-25T01:01:21.470Z,73.11
2022-07-25T01:03:55.397Z,73.19
2022-07-25T01:06:28.462Z,73.08
2022-07-25T01:09:01.536Z,73.26
2022-07-25T01:11:34.393Z,73.51
2022-07-25T01:14:07.595Z,73.31
2022-07-25T01:16:41.523Z,72.99
2022-07-25T01:19:15.659Z,72.90
2022-07-25T01:21:49.689Z,73.02
2022-07-25T01:24:22.267Z,73.04
2022-07-25T01:26:54.873Z,73.08
2022-07-25T01:29:27.336Z,73.01
2022-07-25T01:32:00.140Z,73.14
2022-07-25T01:34:32.633Z,73.37
2022-07-25T01:37:06.643Z,73.32
2022-07-25T01:39:39.127Z,73.37
2022-07-25T01:42:11.729Z,73.11
2022-07-25T01:44:44.220Z,73.51
2022-07-25T01:47:19.759Z,73.77
2022-07-25T01:49:52.450Z,74.07
2022-07-25T01:52:26.409Z,74.23
2022-07-25T01:54:59.134Z,73.82
2022-07-25T01:57:31.698Z,73.89
2022-07-25T02:00:07.008Z,74.28
2022-07-25T02:02:45.654Z,74.55
2022-07-25T02:05:18.187Z,74.80
2022-07-25T02:07:52.212Z,74.52
2022-07-25T02:10:24.664Z,74.47
2022-07-25T02:12:57.449Z,74.53
2022-07-25T02:15:50.355Z,74.29
2022-07-25T02:18:23.310Z,74.40
2022-07-25T02:20:55.891Z,74.23
2022-07-25T02:23:29.862Z,74.42
2022-07-25T02:26:02.350Z,74.41
2022-07-25T02:28:35.051Z,74.51
2022-07-25T02:31:08.446Z,73.91
2022-07-25T02:33:41.350Z,74.13
2022-07-25T02:36:13.858Z,73.99
2022-07-25T02:38:47.997Z,73.85
2022-07-25T02:41:20.565Z,73.86
2022-07-25T02:43:53.113Z,73.93
2022-07-25T02:46:25.781Z,74.09
2022-07-25T02:48:59.351Z,74.08
2022-07-25T02:51:31.971Z,74.03
2022-07-25T02:54:06.080Z,74.04
2022-07-25T02:56:38.618Z,73.98
2022-07-25T02:59:11.206Z,74.08
2022-07-25T03:01:43.689Z,74.05
2022-07-25T03:04:17.203Z,73.95
2022-07-25T03:06:49.730Z,74.15
2022-07-25T03:09:23.730Z,74.07
2022-07-25T03:11:56.280Z,74.20
2022-07-25T03:14:28.746Z,74.04
2022-07-25T03:17:01.722Z,73.96
2022-07-25T03:19:34.594Z,73.74
2022-07-25T03:22:07.103Z,73.69
2022-07-25T03:24:41.078Z,73.91
2022-07-25T03:27:13.785Z,73.69
2022-07-25T03:29:46.551Z,73.53
2022-07-25T03:32:19.056Z,73.46
2022-07-25T03:34:51.898Z,73.96
2022-07-25T03:37:24.419Z,73.46
2022-07-25T03:39:58.376Z,73.24
2022-07-25T03:42:35.037Z,73.22
2022-07-25T03:45:09.713Z,72.94
2022-07-25T03:47:42.227Z,72.92
2022-07-25T03:50:14.963Z,72.65
2022-07-25T03:52:47.485Z,72.80
2022-07-25T03:55:21.574Z,72.65
2022-07-25T03:57:54.054Z,72.63
2022-07-25T04:00:26.786Z,72.51
2022-07-25T04:02:59.738Z,72.65
2022-07-25T04:05:32.289Z,72.34
2022-07-25T04:08:05.313Z,72.44
2022-07-25T04:10:39.315Z,72.45
2022-07-25T04:13:11.856Z,72.04
2022-07-25T04:15:44.699Z,71.62
2022-07-25T04:18:20.879Z,71.12
2022-07-25T04:20:57.760Z,70.67
2022-07-25T04:23:30.546Z,70.62
2022-07-25T04:26:04.986Z,70.68
2022-07-25T04:28:37.484Z,70.37
2022-07-25T04:31:10.129Z,70.05
2022-07-25T04:33:43.313Z,69.63
2022-07-25T04:36:16.034Z,69.18
2022-07-25T04:38:48.617Z,68.78
2022-07-25T04:41:22.815Z,68.42
2022-07-25T04:43:55.651Z,68.25
2022-07-25T04:46:28.283Z,67.91
2022-07-25T04:49:00.827Z,67.38
2022-07-25T04:51:33.475Z,66.87
2022-07-25T04:54:06.842Z,66.70
2022-07-25T04:56:41.144Z,66.42
2022-07-25T04:59:13.593Z,66.10
2022-07-25T05:01:46.373Z,66.10
2022-07-25T05:04:18.927Z,66.27
2022-07-25T05:06:51.529Z,66.14
2022-07-25T05:09:24.298Z,65.92
2022-07-25T05:11:58.530Z,66.00
2022-07-25T05:14:31.103Z,65.84
2022-07-25T05:17:03.736Z,66.55
2022-07-25T05:19:36.232Z,66.41
2022-07-25T05:22:08.854Z,66.49
2022-07-25T05:24:41.706Z,66.49
2022-07-25T05:27:15.837Z,66.56
2022-07-25T05:29:48.355Z,66.56
2022-07-25T05:32:20.915Z,66.48
2022-07-25T05:34:53.504Z,66.36
2022-07-25T05:37:26.293Z,66.85
2022-07-25T05:39:58.743Z,66.90
2022-07-25T05:42:32.722Z,66.94
2022-07-25T05:45:06.290Z,67.38
2022-07-25T05:47:38.959Z,67.60
2022-07-25T05:50:11.614Z,67.97
2022-07-25T05:52:44.364Z,68.07
2022-07-25T05:55:17.817Z,68.18
2022-07-25T05:57:52.062Z,68.38
2022-07-25T06:00:24.794Z,68.60
2022-07-25T06:03:00.221Z,68.87
2022-07-25T06:05:32.848Z,68.97
2022-07-25T06:08:06.167Z,69.23
2022-07-25T06:10:38.650Z,69.44
2022-07-25T06:13:12.807Z,69.58
2022-07-25T06:15:45.305Z,69.87
2022-07-25T06:18:18.428Z,70.01
2022-07-25T06:20:50.976Z,70.32
2022-07-25T06:23:23.805Z,70.67
2022-07-25T06:26:00.357Z,70.58
2022-07-25T06:28:34.803Z,70.66
2022-07-25T06:31:07.482Z,70.82
2022-07-25T06:33:40.269Z,70.84
2022-07-25T06:36:13.007Z,71.08
2022-07-25T06:38:45.559Z,71.21
2022-07-25T06:41:18.205Z,71.16
2022-07-25T06:43:52.258Z,71.06
2022-07-25T06:46:26.775Z,70.90
2022-07-25T06:48:59.826Z,71.19
2022-07-25T06:51:32.533Z,71.25
2022-07-25T06:54:05.649Z,71.46
2022-07-25T06:56:38.312Z,71.62
2022-07-25T06:59:12.411Z,71.48
2022-07-25T07:01:49.491Z,71.57
2022-07-25T07:04:23.944Z,71.63
2022-07-25T07:06:56.371Z,72.09
2022-07-25T07:09:29.017Z,72.79
2022-07-25T07:12:01.466Z,73.15
2022-07-25T07:14:35.815Z,73.54
2022-07-25T07:17:08.369Z,73.61
2022-07-25T07:19:44.651Z,73.80
2022-07-25T07:22:17.133Z,74.03
2022-07-25T07:24:49.807Z,74.26
2022-07-25T07:27:24.410Z,74.38
2022-07-25T07:29:58.433Z,74.40
2022-07-25T07:32:30.975Z,74.26
2022-07-25T07:35:03.797Z,74.28
2022-07-25T07:37:41.390Z,74.38
2022-07-25T07:40:17.104Z,74.31
2022-07-25T07:42:51.134Z,74.10
2022-07-25T07:45:26.049Z,74.40
2022-07-25T07:47:58.554Z,74.20
2022-07-25T07:50:31.420Z,74.19
2022-07-25T07:53:04.353Z,73.86
2022-07-25T07:55:46.112Z,73.64
2022-07-25T07:58:19.386Z,73.39
2022-07-25T08:00:54.568Z,73.49
2022-07-25T08:03:28.005Z,73.47
2022-07-25T08:06:00.659Z,73.43
2022-07-25T08:08:33.134Z,73.54
2022-07-25T08:11:05.979Z,73.03
2022-07-25T08:13:38.506Z,73.35
2022-07-25T08:16:13.988Z,73.08
2022-07-25T08:18:47.000Z,73.27
2022-07-25T08:21:19.700Z,73.50
2022-07-25T08:23:52.258Z,73.77
2022-07-25T08:26:28.091Z,73.35
2022-07-25T08:29:18.244Z,72.99
2022-07-25T08:31:53.112Z,72.72
2022-07-25T08:34:25.636Z,72.97
2022-07-25T08:36:58.914Z,73.00
2022-07-25T08:39:31.415Z,73.36
2022-07-25T08:42:07.798Z,73.44
2022-07-25T08:44:47.838Z,73.14
2022-07-25T08:47:23.541Z,73.21
2022-07-25T08:49:59.594Z,73.57
2022-07-25T08:52:37.387Z,73.59
2022-07-25T08:55:14.750Z,73.31
2022-07-25T08:57:50.130Z,73.08
2022-07-25T09:00:24.437Z,72.87
2022-07-25T09:03:00.688Z,72.72
2022-07-25T09:05:34.215Z,73.03
2022-07-25T09:08:11.253Z,72.79
2022-07-25T09:10:48.393Z,72.78
2022-07-25T09:13:22.481Z,71.78
2022-07-25T09:16:00.620Z,71.00
2022-07-25T09:18:36.621Z,70.74
2022-07-25T09:21:13.914Z,70.79
2022-07-25T09:23:46.626Z,70.94
2022-07-25T09:26:19.083Z,70.98
2022-07-25T09:28:56.426Z,71.00
2022-07-25T09:31:35.074Z,69.98
2022-07-25T09:34:10.508Z,69.93
2022-07-25T09:36:52.506Z,70.39
2022-07-25T09:39:40.788Z,69.91
2022-07-25T09:42:22.176Z,69.73
2022-07-25T09:45:05.061Z,69.02
2022-07-25T09:47:39.522Z,68.96
2022-07-25T09:50:13.591Z,69.08
2022-07-25T09:52:46.734Z,68.90
2022-07-25T09:55:20.442Z,69.32
2022-07-25T09:57:53.149Z,69.07
2022-07-25T10:00:28.157Z,68.94
2022-07-25T10:03:17.944Z,68.88
2022-07-25T10:06:03.696Z,68.48
2022-07-25T10:08:37.076Z,68.11
2022-07-25T10:11:19.724Z,67.74
2022-07-25T10:13:53.025Z,67.81
2022-07-25T10:16:28.045Z,67.78
2022-07-25T10:19:00.617Z,67.71
2022-07-25T10:21:34.786Z,67.82
2022-07-25T10:24:09.482Z,67.82
2022-07-25T10:26:53.529Z,67.72
2022-07-25T10:29:34.115Z,67.46
2022-07-25T10:32:08.224Z,67.52
2022-07-25T10:34:40.913Z,67.37
2022-07-25T10:37:18.468Z,67.24
2022-07-25T10:39:51.196Z,67.32
2022-07-25T10:42:24.276Z,67.33
2022-07-25T10:44:59.795Z,67.42
2022-07-25T10:47:42.679Z,67.36
2022-07-25T10:50:46.191Z,67.35
2022-07-25T10:53:16.352Z,67.11
2022-07-25T10:56:05.605Z,66.79
2022-07-25T10:58:44.317Z,66.95
2022-07-25T11:01:21.916Z,66.55
2022-07-25T11:03:55.931Z,67.13
2022-07-25T11:06:33.897Z,67.24
2022-07-25T11:09:19.173Z,66.90
2022-07-25T11:11:55.704Z,66.55
2022-07-25T11:14:33.343Z,66.51
2022-07-25T11:17:15.394Z,66.26
2022-07-25T11:19:55.837Z,66.21
2022-07-25T11:22:30.125Z,66.33
2022-07-25T11:25:11.168Z,66.06
2022-07-25T11:27:44.035Z,65.91
2022-07-25T11:30:19.236Z,66.06
2022-07-25T11:32:54.386Z,65.67
2022-07-25T11:35:29.050Z,64.89
2022-07-25T11:38:03.419Z,64.99
2022-07-25T11:40:43.789Z,64.77
2022-07-25T11:43:20.945Z,64.81
2022-07-25T11:45:59.010Z,64.47
2022-07-25T11:48:34.435Z,64.66
2022-07-25T11:51:18.128Z,65.57
2022-07-25T11:53:51.822Z,65.59
2022-07-25T11:56:41.781Z,65.96
2022-07-25T11:59:14.934Z,65.49
2022-07-25T12:01:48.169Z,65.39
2022-07-25T12:04:21.165Z,65.63
2022-07-25T12:07:04.566Z,65.90
2022-07-25T12:09:37.196Z,65.74
2022-07-25T12:12:11.466Z,65.36
2022-07-25T12:14:44.104Z,65.71
2022-07-25T12:17:17.108Z,65.59
2022-07-25T12:19:49.727Z,65.98
2022-07-25T12:22:22.428Z,65.98
2022-07-25T12:24:55.045Z,65.98
2022-07-25T12:27:29.190Z,65.59
2022-07-25T12:30:01.815Z,65.96
2022-07-25T12:32:36.718Z,65.93
2022-07-25T12:35:11.112Z,65.60
2022-07-25T12:37:45.132Z,65.21
2022-07-25T12:40:18.366Z,65.26
2022-07-25T12:42:52.708Z,64.94
2022-07-25T12:45:25.717Z,65.43
2022-07-25T12:47:58.413Z,65.35
2022-07-25T12:50:31.019Z,64.86
2022-07-25T12:53:04.720Z,64.92
2022-07-25T12:55:37.798Z,64.96
2022-07-25T12:58:13.187Z,64.67
2022-07-25T13:00:46.929Z,64.64
2022-07-25T13:03:19.768Z,64.28
2022-07-25T13:05:52.420Z,64.60
2022-07-25T13:08:25.005Z,64.78
2022-07-25T13:10:57.440Z,64.34
2022-07-25T13:13:31.416Z,64.37
2022-07-25T13:16:04.434Z,64.42
2022-07-25T13:18:37.116Z,64.17
2022-07-25T13:21:09.595Z,64.33
2022-07-25T13:23:42.582Z,64.28
2022-07-25T13:26:15.025Z,64.77
2022-07-25T13:28:49.151Z,65.23
2022-07-25T13:31:22.840Z,65.17
2022-07-25T13:33:56.175Z,64.95
2022-07-25T13:36:28.814Z,64.99
2022-07-25T13:39:01.846Z,65.07
2022-07-25T13:41:34.399Z,65.10
2022-07-25T13:44:08.623Z,65.16
2022-07-25T13:46:42.124Z,64.82
2022-07-25T13:49:17.040Z,64.52
2022-07-25T13:51:49.670Z,64.55
2022-07-25T13:54:22.377Z,64.68
2022-07-25T13:56:54.851Z,64.88
2022-07-25T13:59:28.811Z,64.83
2022-07-25T14:02:01.470Z,65.21
2022-07-25T14:04:34.304Z,65.32
2022-07-25T14:07:06.870Z,64.93
2022-07-25T14:09:39.485Z,65.09
2022-07-25T14:12:11.979Z,65.19
2022-07-25T14:14:46.016Z,65.40
2022-07-25T14:17:18.586Z,65.69
2022-07-25T14:19:51.247Z,65.98
2022-07-25T14:22:23.728Z,65.79
2022-07-25T14:24:56.507Z,65.67
2022-07-25T14:27:28.967Z,65.66
2022-07-25T14:30:03.348Z,65.91
2022-07-25T14:32:36.491Z,65.96
2022-07-25T14:35:11.208Z,65.89
2022-07-25T14:37:43.819Z,66.13
2022-07-25T14:40:17.208Z,66.13
2022-07-25T14:42:49.797Z,66.29
2022-07-25T14:45:24.309Z,66.25
2022-07-25T14:47:57.455Z,66.55
2022-07-25T14:50:30.163Z,66.75
2022-07-25T14:53:02.669Z,66.73
2022-07-25T14:55:37.659Z,67.13
2022-07-25T14:58:10.197Z,67.41
2022-07-25T15:00:46.063Z,67.61
2022-07-25T15:03:18.746Z,67.56
2022-07-25T15:05:51.661Z,67.80
2022-07-25T15:08:24.185Z,67.69
2022-07-25T15:10:56.947Z,67.44
2022-07-25T15:13:31.446Z,67.49
2022-07-25T15:16:06.570Z,67.40
2022-07-25T15:19:05.319Z,67.34
2022-07-25T15:21:32.284Z,67.52
2022-07-25T15:24:05.510Z,67.74
2022-07-25T15:26:38.178Z,67.71
2022-07-25T15:29:12.207Z,67.85
2022-07-25T15:31:47.044Z,67.91
2022-07-25T15:34:19.706Z,67.90
2022-07-25T15:36:52.557Z,67.85
2022-07-25T15:39:25.196Z,67.87
2022-07-25T15:41:57.876Z,67.88
2022-07-25T15:44:32.748Z,68.21
2022-07-25T15:47:09.086Z,68.33
2022-07-25T15:49:42.349Z,68.45
2022-07-25T15:52:15.077Z,68.30
2022-07-25T15:54:47.649Z,68.27
2022-07-25T15:57:20.326Z,68.26
2022-07-25T15:59:52.772Z,68.32
2022-07-25T16:02:26.853Z,68.11
2022-07-25T16:04:59.857Z,68.18
2022-07-25T16:07:32.572Z,68.32
2022-07-25T16:10:06.062Z,68.29
2022-07-25T16:12:38.964Z,68.44
2022-07-25T16:15:12.399Z,68.34
2022-07-25T16:17:46.443Z,68.41
2022-07-25T16:20:19.442Z,68.40
2022-07-25T16:22:57.807Z,68.69
2022-07-25T16:25:30.708Z,68.73
2022-07-25T16:28:03.383Z,68.89
2022-07-25T16:30:36.076Z,69.04
2022-07-25T16:33:10.269Z,68.99
2022-07-25T16:35:42.900Z,69.28
2022-07-25T16:38:15.438Z,69.34
2022-07-25T16:40:47.947Z,69.49
2022-07-25T16:43:21.244Z,69.46
2022-07-25T16:45:53.705Z,69.67
2022-07-25T16:48:27.898Z,69.66
2022-07-25T16:51:00.672Z,69.77
2022-07-25T16:53:33.273Z,69.86
2022-07-25T16:56:06.412Z,69.96
2022-07-25T16:58:39.008Z,70.01
2022-07-25T17:01:11.556Z,70.19
2022-07-25T17:03:45.634Z,70.13
2022-07-25T17:06:18.269Z,70.42
2022-07-25T17:08:51.004Z,70.26
2022-07-25T17:11:23.459Z,70.57
2022-07-25T17:13:56.134Z,70.46
2022-07-25T17:16:28.698Z,70.61
2022-07-25T17:19:04.084Z,70.73
2022-07-25T17:21:37.078Z,70.96
2022-07-25T17:24:09.838Z,70.76
2022-07-25T17:26:42.384Z,70.91
2022-07-25T17:29:15.028Z,70.84
2022-07-25T17:31:47.606Z,70.86
2022-07-25T17:34:21.987Z,70.93
2022-07-25T17:36:54.603Z,70.81
2022-07-25T17:39:27.234Z,70.90
2022-07-25T17:42:00.487Z,71.03
2022-07-25T17:44:33.482Z,70.82
2022-07-25T17:47:06.704Z,71.10
2022-07-25T17:49:40.606Z,70.97
2022-07-25T17:52:13.192Z,71.09
2022-07-25T17:54:45.896Z,71.16
2022-07-25T17:57:18.443Z,71.15
2022-07-25T17:59:51.004Z,71.57
2022-07-25T18:02:23.534Z,71.63
2022-07-25T18:04:57.703Z,71.54
2022-07-25T18:07:30.184Z,71.47
2022-07-25T18:10:03.934Z,71.54
2022-07-25T18:12:36.550Z,71.74
2022-07-25T18:15:12.340Z,71.73
2022-07-25T18:17:45.571Z,71.55
2022-07-25T18:20:19.608Z,72.10
2022-07-25T18:22:52.079Z,71.89
2022-07-25T18:25:24.923Z,72.12
2022-07-25T18:27:57.408Z,72.28
2022-07-25T18:30:30.278Z,72.25
2022-07-25T18:33:02.843Z,72.33
2022-07-25T18:35:36.907Z,72.35
2022-07-25T18:38:11.643Z,72.36
2022-07-25T18:40:44.404Z,72.10
2022-07-25T18:43:17.048Z,72.34
2022-07-25T18:45:50.964Z,72.38
2022-07-25T18:48:27.260Z,72.38
2022-07-25T18:51:03.126Z,72.60
2022-07-25T18:53:35.891Z,72.82
2022-07-25T18:56:09.212Z,73.02
2022-07-25T18:58:41.919Z,73.72
2022-07-25T19:01:14.625Z,73.22
2022-07-25T19:03:47.313Z,73.30
2022-07-25T19:06:21.604Z,73.05
2022-07-25T19:08:54.298Z,73.33
2022-07-25T19:11:26.935Z,73.23
2022-07-25T19:13:59.487Z,73.38
2022-07-25T19:16:33.115Z,73.05
2022-07-25T19:19:05.716Z,73.37
2022-07-25T19:21:39.861Z,73.53
2022-07-25T19:24:12.686Z,73.70
2022-07-25T19:26:47.929Z,73.31
2022-07-25T19:29:21.491Z,73.47
2022-07-25T19:31:54.132Z,73.49
2022-07-25T19:34:26.820Z,73.67
2022-07-25T19:37:00.907Z,73.59
2022-07-25T19:39:33.453Z,73.49
2022-07-25T19:42:10.201Z,73.86
2022-07-25T19:44:42.885Z,73.74
2022-07-25T19:47:15.733Z,74.03
2022-07-25T19:49:48.408Z,73.65
2022-07-25T19:52:22.509Z,73.96
2022-07-25T19:54:55.029Z,73.95
2022-07-25T19:57:28.024Z,74.24
2022-07-25T20:00:00.528Z,74.28
2022-07-25T20:02:33.980Z,74.42
2022-07-25T20:05:07.670Z,74.37
2022-07-25T20:07:41.634Z,74.74
2022-07-25T20:10:14.249Z,74.61
2022-07-25T20:12:50.722Z,74.61
2022-07-25T20:15:23.531Z,74.48
2022-07-25T20:17:57.077Z,74.41
2022-07-25T20:20:29.509Z,74.73
2022-07-25T20:23:04.064Z,74.40
2022-07-25T20:25:36.707Z,74.54
2022-07-25T20:28:09.253Z,74.48
2022-07-25T20:30:42.218Z,74.67
2022-07-25T20:33:14.880Z,74.42
2022-07-25T20:35:47.514Z,74.80
2022-07-25T20:38:22.244Z,74.59
2022-07-25T20:40:55.921Z,74.63
2022-07-25T20:43:28.948Z,74.85
2022-07-25T20:46:04.028Z,75.07
2022-07-25T20:48:38.812Z,74.70
2022-07-25T20:51:13.101Z,74.86
2022-07-25T20:53:53.257Z,75.41
2022-07-25T20:56:26.242Z,74.86
2022-07-25T20:58:58.892Z,75.06
2022-07-25T21:01:31.468Z,74.84
2022-07-25T21:04:07.698Z,75.12
2022-07-25T21:06:40.574Z,75.42
2022-07-25T21:09:20.215Z,75.50
2022-07-25T21:11:53.737Z,75.08
2022-07-25T21:14:27.118Z,75.41
2022-07-25T21:16:59.683Z,75.27
2022-07-25T21:19:32.504Z,75.45
2022-07-25T21:22:05.399Z,75.30
2022-07-25T21:24:39.413Z,75.61
2022-07-25T21:27:12.039Z,75.09
2022-07-25T21:29:44.647Z,75.50
2022-07-25T21:32:17.479Z,75.45
2022-07-25T21:34:50.077Z,75.07
2022-07-25T21:37:22.623Z,75.31
2022-07-25T21:39:56.612Z,75.46
2022-07-25T21:42:29.917Z,75.48
2022-07-25T21:45:02.692Z,75.18
2022-07-25T21:47:35.814Z,75.55
2022-07-25T21:50:28.169Z,75.16
2022-07-25T21:53:00.693Z,75.13
2022-07-25T21:55:35.131Z,75.12
2022-07-25T21:58:07.782Z,75.25
2022-07-25T22:00:45.349Z,75.32
2022-07-25T22:03:19.122Z,75.13
2022-07-25T22:05:51.701Z,75.19
2022-07-25T22:08:24.232Z,75.15
2022-07-25T22:10:58.559Z,75.22
2022-07-25T22:13:31.455Z,75.23
2022-07-25T22:16:04.378Z,75.15
2022-07-25T22:18:36.857Z,74.92
2022-07-25T22:21:10.490Z,75.17
2022-07-25T22:23:42.969Z,75.55
2022-07-25T22:26:16.949Z,75.45
2022-07-25T22:28:49.602Z,75.06
2022-07-25T22:31:22.282Z,75.04
2022-07-25T22:33:54.859Z,75.19
2022-07-25T22:36:27.487Z,75.27
2022-07-25T22:39:00.110Z,75.23
2022-07-25T22:41:34.191Z,75.22
2022-07-25T22:44:07.652Z,75.19
2022-07-25T22:46:40.162Z,75.10
2022-07-25T22:49:13.309Z,75.21
2022-07-25T22:51:46.027Z,75.39
2022-07-25T22:54:18.532Z,75.46
2022-07-25T22:56:52.564Z,75.58
2022-07-25T22:59:25.117Z,75.58
2022-07-25T23:01:57.809Z,75.63
2022-07-25T23:04:30.404Z,75.62
2022-07-25T23:07:03.615Z,75.83
2022-07-25T23:09:36.637Z,75.67
2022-07-25T23:12:11.491Z,75.89
2022-07-25T23:14:44.092Z,75.55
2022-07-25T23:17:23.211Z,75.37
2022-07-25T23:19:56.466Z,75.78
2022-07-25T23:22:30.328Z,75.49
2022-07-25T23:25:02.891Z,75.33
2022-07-25T23:27:37.259Z,75.66
2022-07-25T23:30:10.656Z,75.57
2022-07-25T23:32:43.656Z,75.29
2022-07-25T23:35:16.141Z,75.48
2022-07-25T23:37:48.767Z,75.93
2022-07-25T23:40:21.360Z,75.58
2022-07-25T23:42:55.497Z,75.95
2022-07-25T23:45:28.545Z,75.49
2022-07-25T23:48:01.314Z,75.95
2022-07-25T23:50:33.928Z,75.81
2022-07-25T23:53:06.732Z,75.95
2022-07-25T23:55:39.234Z,75.55
2022-07-25T23:58:13.252Z,75.80
